ADDS METAR Data INFO
IDs: Format: Raw Decoded Include TAF

Data at: 1301 UTC 19 Jul 2018

KHOT 191253Z AUTO 08003KT 9SM OVC004 26/25 A2994 RMK AO2 SLP131 T02560250
KHOT 191153Z AUTO 06004KT 9SM OVC004 25/25 A2993 RMK AO2 SLP126 T02500250 10267 20250 53006
KHOT 191116Z AUTO 10003KT 10SM OVC004 25/25 A2992 RMK AO2 T02500250
KHOT 191053Z AUTO 07004KT 10SM OVC005 26/25 A2992 RMK AO2 SLP123 T02560250
KHOT 190953Z AUTO 08005KT 10SM OVC006 26/25 A2991 RMK AO2 SLP120 T02610250
KHOT 190853Z AUTO 08006KT 10SM OVC005 26/26 A2991 RMK AO2 SLP120 T02610256 55005
KHOT 190753Z AUTO 09004KT 10SM OVC008 26/26 A2991 RMK AO2 CIG 005V010 SLP119 T02610256
KHOT 190653Z AUTO 08005KT 10SM OVC007 27/26 A2991 RMK AO2 SLP122 T02670256
KHOT 190553Z AUTO 09003KT 10SM OVC008 27/26 A2993 RMK AO2 SLP126 T02670256 10300 20267 403170239 50003
KHOT 190533Z AUTO 08005KT 10SM BKN009 27/26 A2993 RMK AO2 T02670256
KHOT 190524Z AUTO 08005KT 10SM SCT009 27/26 A2993 RMK AO2 T02670256
KHOT 190453Z AUTO 08005KT 10SM CLR 27/26 A2993 RMK AO2 SLP126 T02670261
KHOT 190353Z AUTO 10005KT 10SM CLR 28/26 A2992 RMK AO2 SLP125 T02780256
KHOT 190253Z AUTO 09004KT 10SM CLR 28/26 A2992 RMK AO2 SLP123 T02780256 53006
KHOT 190153Z AUTO 09004KT 10SM CLR 28/26 A2991 RMK AO2 SLP120 T02830261
KHOT 190053Z AUTO 07005KT 10SM FEW110 29/26 A2990 RMK AO2 SLP118 T02940261
KHOT 182353Z AUTO 14004KT 10SM OVC110 30/26 A2990 RMK AO2 SLP118 T03000256 10317 20294 58014
KHOT 182253Z AUTO 14004KT 10SM FEW120 31/26 A2992 RMK AO2 SLP123 T03060256
KHOT 182153Z AUTO 00000KT 10SM CLR 31/25 A2993 RMK AO2 SLP127 T03060250
KHOT 182053Z AUTO 21005KT 10SM FEW023 31/25 A2994 RMK AO2 SLP131 T03110250 58012
KHOT 181953Z AUTO VRB03KT 10SM FEW110 31/25 A2996 RMK AO2 SLP137 T03060250
KHOT 181853Z AUTO VRB05KT 10SM FEW024 30/25 A2997 RMK AO2 SLP140 T03000250
KHOT 181840Z AUTO 15007KT 10SM FEW023 31/25 A2997 RMK AO2 T03060250
KHOT 181817Z AUTO 09007KT 10SM BKN023 31/24 A2997 RMK AO2 T03060244
KHOT 181753Z AUTO 10007KT 10SM CLR 30/24 A2998 RMK AO2 SLP143 T03000244 10300 20250 58010
KHOT 181653Z AUTO 10008KT 10SM FEW018 29/24 A2999 RMK AO2 SLP150 T02890244
KHOT 181553Z AUTO 07010KT 10SM BKN015 28/25 A3001 RMK AO2 SLP154 T02830250
KHOT 181551Z AUTO 07010KT 10SM BKN015 28/25 A3001 RMK AO2
KHOT 181527Z AUTO 08007KT 10SM BKN013 28/25 A3001 RMK AO2 T02830250
KHOT 181453Z AUTO 00000KT 10SM FEW095 28/25 A3001 RMK AO2 SLP153 T02780250 51003
KHOT 181353Z AUTO 11004KT 10SM FEW100 26/24 A3000 RMK AO2 SLP153 T02610244
KHOT 181253Z AUTO 10003KT 10SM SCT100 BKN120 25/24 A3000 RMK AO2 SLP152 T02500244
KHOT 181153Z AUTO 10004KT 10SM BKN100 24/24 A3000 RMK AO2 SLP150 60002 70003 T02390239 10250 20239 55001
KHOT 181053Z AUTO 09004KT 10SM SCT095 BKN120 24/24 A2999 RMK AO2 RAB33E40 SLP148 P0000 T02440244
KHOT 180953Z AUTO 00000KT 10SM FEW048 FEW110 24/24 A2998 RMK AO2 RAB05E40 SLP145 P0002 T02440239
KHOT 180853Z AUTO 36004KT 10SM FEW009 BKN090 OVC100 24/23 A3000 RMK AO2 SLP150 T02440233 53002
KHOT 180753Z AUTO 00000KT 10SM SCT110 24/23 A2998 RMK AO2 SLP144 T02440233
KHOT 180653Z AUTO 00000KT 10SM FEW100 25/23 A2999 RMK AO2 SLP146 T02500228
KHOT 180553Z AUTO 00000KT 10SM FEW100 FEW110 25/23 A2999 RMK AO2 SLP149 60000 T02500233 10283 20244 403780239 55003
KHOT 180453Z AUTO 00000KT 10SM CLR 25/23 A2999 RMK AO2 SLP146 T02500228
KHOT 180353Z AUTO 00000KT 10SM FEW110 25/23 A3000 RMK AO2 SLP151 T02500233
KHOT 180253Z AUTO 07004KT 10SM SCT110 26/23 A3000 RMK AO2 SLP153 60000 T02560233 55003
KHOT 180153Z AUTO 00000KT 10SM CLR 26/24 A3000 RMK AO2 RAE12 SLP151 P0000 T02610244